sensor_id;sensor_type;location;lat;lon;timestamp;pressure;altitude;pressure_sealevel;temperature;humidity
76694;BME280;69667;52.136;5.424;2024-03-22T00:02:24;102149.56;;;10.74;100.00
76694;BME280;69667;52.136;5.424;2024-03-22T00:04:51;102142.34;;;10.74;100.00
76694;BME280;69667;52.136;5.424;2024-03-22T00:07:18;102138.66;;;10.75;100.00
76694;BME280;69667;52.136;5.424;2024-03-22T00:09:45;102138.56;;;10.77;100.00
76694;BME280;69667;52.136;5.424;2024-03-22T00:12:11;102129.63;;;10.76;100.00
76694;BME280;69667;52.136;5.424;2024-03-22T00:14:38;102130.47;;;10.77;100.00
76694;BME280;69667;52.136;5.424;2024-03-22T00:17:05;102120.56;;;10.77;100.00
76694;BME280;69667;52.136;5.424;2024-03-22T00:19:32;102116.22;;;10.75;100.00
76694;BME280;69667;52.136;5.424;2024-03-22T00:21:59;102106.44;;;10.72;100.00
76694;BME280;69667;52.136;5.424;2024-03-22T00:24:26;102098.41;;;10.71;100.00
76694;BME280;69667;52.136;5.424;2024-03-22T00:26:53;102098.50;;;10.69;100.00
76694;BME280;69667;52.136;5.424;2024-03-22T00:29:20;102097.72;;;10.67;100.00
76694;BME280;69667;52.136;5.424;2024-03-22T00:31:46;102095.97;;;10.66;100.00
76694;BME280;69667;52.136;5.424;2024-03-22T00:34:13;102090.66;;;10.65;100.00
76694;BME280;69667;52.136;5.424;2024-03-22T00:36:40;102087.19;;;10.63;100.00
76694;BME280;69667;52.136;5.424;2024-03-22T00:39:07;102084.56;;;10.61;100.00
76694;BME280;69667;52.136;5.424;2024-03-22T00:41:34;102083.88;;;10.58;100.00
76694;BME280;69667;52.136;5.424;2024-03-22T00:44:01;102079.50;;;10.55;100.00
76694;BME280;69667;52.136;5.424;2024-03-22T00:46:28;102066.88;;;10.56;100.00
76694;BME280;69667;52.136;5.424;2024-03-22T00:48:55;102059.78;;;10.53;100.00
76694;BME280;69667;52.136;5.424;2024-03-22T00:51:22;102047.28;;;10.52;100.00
76694;BME280;69667;52.136;5.424;2024-03-22T00:53:48;102045.53;;;10.51;100.00
76694;BME280;69667;52.136;5.424;2024-03-22T00:56:15;102047.34;;;10.51;100.00
76694;BME280;69667;52.136;5.424;2024-03-22T00:58:42;102046.28;;;10.53;100.00
76694;BME280;69667;52.136;5.424;2024-03-22T01:01:09;102040.91;;;10.53;100.00
76694;BME280;69667;52.136;5.424;2024-03-22T01:03:36;102037.25;;;10.54;100.00
76694;BME280;69667;52.136;5.424;2024-03-22T01:06:03;102040.06;;;10.53;100.00
76694;BME280;69667;52.136;5.424;2024-03-22T01:08:30;102042.75;;;10.53;100.00
76694;BME280;69667;52.136;5.424;2024-03-22T01:10:57;102041.00;;;10.52;100.00
76694;BME280;69667;52.136;5.424;2024-03-22T01:13:24;102039.16;;;10.52;100.00
76694;BME280;69667;52.136;5.424;2024-03-22T01:15:51;102036.47;;;10.52;100.00
76694;BME280;69667;52.136;5.424;2024-03-22T01:18:17;102032.03;;;10.51;100.00
76694;BME280;69667;52.136;5.424;2024-03-22T01:20:47;102032.97;;;10.50;100.00
76694;BME280;69667;52.136;5.424;2024-03-22T01:23:14;102036.66;;;10.49;100.00
76694;BME280;69667;52.136;5.424;2024-03-22T01:25:41;102035.78;;;10.49;100.00
76694;BME280;69667;52.136;5.424;2024-03-22T01:28:07;102038.56;;;10.47;100.00
76694;BME280;69667;52.136;5.424;2024-03-22T01:30:34;102039.63;;;10.45;100.00
76694;BME280;69667;52.136;5.424;2024-03-22T01:33:03;102031.56;;;10.43;100.00
76694;BME280;69667;52.136;5.424;2024-03-22T01:35:30;102034.28;;;10.43;100.00
76694;BME280;69667;52.136;5.424;2024-03-22T01:37:57;102022.53;;;10.44;100.00
76694;BME280;69667;52.136;5.424;2024-03-22T01:40:24;102026.88;;;10.47;100.00
76694;BME280;69667;52.136;5.424;2024-03-22T01:42:57;102022.34;;;10.47;100.00
76694;BME280;69667;52.136;5.424;2024-03-22T01:45:24;102027.50;;;10.52;100.00
76694;BME280;69667;52.136;5.424;2024-03-22T01:47:52;102015.56;;;10.56;100.00
76694;BME280;69667;52.136;5.424;2024-03-22T01:50:21;102008.19;;;10.59;100.00
76694;BME280;69667;52.136;5.424;2024-03-22T01:52:48;102005.47;;;10.59;100.00
76694;BME280;69667;52.136;5.424;2024-03-22T01:55:16;102002.69;;;10.61;100.00
76694;BME280;69667;52.136;5.424;2024-03-22T01:57:46;102001.72;;;10.62;100.00
76694;BME280;69667;52.136;5.424;2024-03-22T02:00:16;102005.47;;;10.59;100.00
76694;BME280;69667;52.136;5.424;2024-03-22T02:02:43;102015.47;;;10.57;100.00
76694;BME280;69667;52.136;5.424;2024-03-22T02:05:14;102011.06;;;10.56;100.00
76694;BME280;69667;52.136;5.424;2024-03-22T02:07:42;102005.75;;;10.55;100.00
76694;BME280;69667;52.136;5.424;2024-03-22T02:10:10;102007.47;;;10.56;100.00
76694;BME280;69667;52.136;5.424;2024-03-22T02:12:38;102006.50;;;10.57;100.00
76694;BME280;69667;52.136;5.424;2024-03-22T02:15:06;102006.34;;;10.60;100.00
76694;BME280;69667;52.136;5.424;2024-03-22T02:17:36;102002.59;;;10.62;100.00
76694;BME280;69667;52.136;5.424;2024-03-22T02:20:03;102001.63;;;10.63;100.00
76694;BME280;69667;52.136;5.424;2024-03-22T02:22:33;101989.78;;;10.66;100.00
76694;BME280;69667;52.136;5.424;2024-03-22T02:25:00;101988.81;;;10.67;100.00
76694;BME280;69667;52.136;5.424;2024-03-22T02:27:27;101980.72;;;10.67;100.00
76694;BME280;69667;52.136;5.424;2024-03-22T02:29:54;101986.91;;;10.69;100.00
76694;BME280;69667;52.136;5.424;2024-03-22T02:32:21;101976.03;;;10.70;100.00
76694;BME280;69667;52.136;5.424;2024-03-22T02:34:48;101975.09;;;10.71;100.00
76694;BME280;69667;52.136;5.424;2024-03-22T02:37:27;101975.94;;;10.72;100.00
76694;BME280;69667;52.136;5.424;2024-03-22T02:39:55;101985.00;;;10.71;100.00
76694;BME280;69667;52.136;5.424;2024-03-22T02:42:21;101976.91;;;10.71;100.00
76694;BME280;69667;52.136;5.424;2024-03-22T02:44:48;101970.63;;;10.70;100.00
76694;BME280;69667;52.136;5.424;2024-03-22T02:47:15;101967.06;;;10.70;100.00
76694;BME280;69667;52.136;5.424;2024-03-22T02:49:42;101965.31;;;10.69;100.00
76694;BME280;69667;52.136;5.424;2024-03-22T02:52:09;101949.28;;;10.66;100.00
76694;BME280;69667;52.136;5.424;2024-03-22T02:54:36;101948.41;;;10.65;100.00
76694;BME280;69667;52.136;5.424;2024-03-22T02:57:03;101951.13;;;10.65;100.00
76694;BME280;69667;52.136;5.424;2024-03-22T02:59:30;101940.22;;;10.67;100.00
76694;BME280;69667;52.136;5.424;2024-03-22T03:01:57;101932.31;;;10.64;100.00
76694;BME280;69667;52.136;5.424;2024-03-22T03:04:24;101918.91;;;10.62;100.00
76694;BME280;69667;52.136;5.424;2024-03-22T03:06:51;101914.63;;;10.58;100.00
76694;BME280;69667;52.136;5.424;2024-03-22T03:09:17;101909.31;;;10.57;100.00
76694;BME280;69667;52.136;5.424;2024-03-22T03:11:44;101905.78;;;10.56;100.00
76694;BME280;69667;52.136;5.424;2024-03-22T03:14:11;101896.78;;;10.56;100.00
76694;BME280;69667;52.136;5.424;2024-03-22T03:16:38;101897.81;;;10.53;100.00
76694;BME280;69667;52.136;5.424;2024-03-22T03:19:05;101890.69;;;10.52;100.00
76694;BME280;69667;52.136;5.424;2024-03-22T03:21:32;101888.97;;;10.51;100.00
76694;BME280;69667;52.136;5.424;2024-03-22T03:23:59;101890.78;;;10.51;100.00
76694;BME280;69667;52.136;5.424;2024-03-22T03:26:26;101893.59;;;10.49;100.00
76694;BME280;69667;52.136;5.424;2024-03-22T03:28:53;101888.53;;;10.43;100.00
76694;BME280;69667;52.136;5.424;2024-03-22T03:31:21;101890.47;;;10.41;100.00
76694;BME280;69667;52.136;5.424;2024-03-22T03:33:48;101888.78;;;10.39;100.00
76694;BME280;69667;52.136;5.424;2024-03-22T03:36:15;101879.06;;;10.36;100.00
76694;BME280;69667;52.136;5.424;2024-03-22T03:38:42;101873.91;;;10.32;100.00
76694;BME280;69667;52.136;5.424;2024-03-22T03:41:09;101870.53;;;10.28;100.00
76694;BME280;69667;52.136;5.424;2024-03-22T03:43:36;101858.97;;;10.26;100.00
76694;BME280;69667;52.136;5.424;2024-03-22T03:46:03;101854.59;;;10.23;100.00
76694;BME280;69667;52.136;5.424;2024-03-22T03:48:30;101853.81;;;10.21;100.00
76694;BME280;69667;52.136;5.424;2024-03-22T03:50:56;101860.28;;;10.19;100.00
76694;BME280;69667;52.136;5.424;2024-03-22T03:53:29;101849.56;;;10.17;100.00
76694;BME280;69667;52.136;5.424;2024-03-22T03:55:57;101852.34;;;10.16;100.00
76694;BME280;69667;52.136;5.424;2024-03-22T03:58:24;101840.00;;;10.12;100.00
76694;BME280;69667;52.136;5.424;2024-03-22T04:00:50;101850.00;;;10.10;100.00
76694;BME280;69667;52.136;5.424;2024-03-22T04:03:17;101843.66;;;10.11;100.00
76694;BME280;69667;52.136;5.424;2024-03-22T04:05:44;101858.78;;;10.13;100.00
76694;BME280;69667;52.136;5.424;2024-03-22T04:08:11;101852.69;;;10.10;100.00
76694;BME280;69667;52.136;5.424;2024-03-22T04:10:38;101844.59;;;10.10;100.00
76694;BME280;69667;52.136;5.424;2024-03-22T04:13:06;101847.44;;;10.07;100.00
76694;BME280;69667;52.136;5.424;2024-03-22T04:15:35;101847.53;;;10.05;100.00
76694;BME280;69667;52.136;5.424;2024-03-22T04:18:02;101860.13;;;10.05;100.00
76694;BME280;69667;52.136;5.424;2024-03-22T04:20:29;101850.41;;;10.02;100.00
76694;BME280;69667;52.136;5.424;2024-03-22T04:22:56;101848.50;;;10.04;100.00
76694;BME280;69667;52.136;5.424;2024-03-22T04:25:23;101849.44;;;10.03;100.00
76694;BME280;69667;52.136;5.424;2024-03-22T04:27:50;101844.94;;;10.04;100.00
76694;BME280;69667;52.136;5.424;2024-03-22T04:30:17;101847.72;;;10.02;100.00
76694;BME280;69667;52.136;5.424;2024-03-22T04:32:46;101842.22;;;10.04;100.00
76694;BME280;69667;52.136;5.424;2024-03-22T04:35:13;101840.50;;;10.03;100.00
76694;BME280;69667;52.136;5.424;2024-03-22T04:37:40;101845.09;;;10.01;100.00
76694;BME280;69667;52.136;5.424;2024-03-22T04:40:07;101841.63;;;9.99;100.00
76694;BME280;69667;52.136;5.424;2024-03-22T04:42:36;101850.69;;;9.98;100.00
76694;BME280;69667;52.136;5.424;2024-03-22T04:45:03;101842.75;;;9.95;100.00
76694;BME280;69667;52.136;5.424;2024-03-22T04:47:30;101841.09;;;9.92;100.00
76694;BME280;69667;52.136;5.424;2024-03-22T04:49:57;101845.78;;;9.89;100.00
76694;BME280;69667;52.136;5.424;2024-03-22T04:52:24;101844.13;;;9.86;100.00
76694;BME280;69667;52.136;5.424;2024-03-22T04:54:50;101853.19;;;9.85;100.00
76694;BME280;69667;52.136;5.424;2024-03-22T04:57:17;101850.56;;;9.84;100.00
76694;BME280;69667;52.136;5.424;2024-03-22T04:59:44;101852.31;;;9.85;100.00
76694;BME280;69667;52.136;5.424;2024-03-22T05:02:11;101854.06;;;9.86;100.00
76694;BME280;69667;52.136;5.424;2024-03-22T05:04:38;101852.31;;;9.85;100.00
76694;BME280;69667;52.136;5.424;2024-03-22T05:07:05;101855.00;;;9.85;100.00
76694;BME280;69667;52.136;5.424;2024-03-22T05:09:32;101858.66;;;9.84;100.00
76694;BME280;69667;52.136;5.424;2024-03-22T05:11:58;101847.69;;;9.87;100.00
76694;BME280;69667;52.136;5.424;2024-03-22T05:14:25;101850.22;;;9.90;100.00
76694;BME280;69667;52.136;5.424;2024-03-22T05:16:52;101843.97;;;9.89;100.00
76694;BME280;69667;52.136;5.424;2024-03-22T05:19:19;101839.44;;;9.90;100.00
76694;BME280;69667;52.136;5.424;2024-03-22T05:21:46;101841.38;;;9.88;100.00
76694;BME280;69667;52.136;5.424;2024-03-22T05:24:13;101840.31;;;9.90;100.00
76694;BME280;69667;52.136;5.424;2024-03-22T05:26:40;101849.38;;;9.89;100.00
76694;BME280;69667;52.136;5.424;2024-03-22T05:29:06;101839.63;;;9.87;100.00
76694;BME280;69667;52.136;5.424;2024-03-22T05:31:45;101832.41;;;9.87;100.00
76694;BME280;69667;52.136;5.424;2024-03-22T05:34:13;101827.94;;;9.86;100.00
76694;BME280;69667;52.136;5.424;2024-03-22T05:36:41;101828.03;;;9.85;100.00
76694;BME280;69667;52.136;5.424;2024-03-22T05:39:08;101833.50;;;9.83;100.00
76694;BME280;69667;52.136;5.424;2024-03-22T05:41:37;101818.31;;;9.82;100.00
76694;BME280;69667;52.136;5.424;2024-03-22T05:44:05;101824.63;;;9.81;100.00
76694;BME280;69667;52.136;5.424;2024-03-22T05:46:32;101813.94;;;9.80;100.00
76694;BME280;69667;52.136;5.424;2024-03-22T05:48:58;101807.84;;;9.76;100.00
76694;BME280;69667;52.136;5.424;2024-03-22T05:51:25;101811.59;;;9.74;100.00
76694;BME280;69667;52.136;5.424;2024-03-22T05:53:52;101816.22;;;9.72;100.00
76694;BME280;69667;52.136;5.424;2024-03-22T05:56:19;101813.50;;;9.72;100.00
76694;BME280;69667;52.136;5.424;2024-03-22T05:58:46;101807.25;;;9.71;100.00
76694;BME280;69667;52.136;5.424;2024-03-22T06:01:13;101804.47;;;9.73;100.00
76694;BME280;69667;52.136;5.424;2024-03-22T06:03:40;101799.16;;;9.71;100.00
76694;BME280;69667;52.136;5.424;2024-03-22T06:06:07;101793.69;;;9.73;100.00
76694;BME280;69667;52.136;5.424;2024-03-22T06:08:34;101802.47;;;9.76;100.00
76694;BME280;69667;52.136;5.424;2024-03-22T06:11:01;101796.91;;;9.79;100.00
76694;BME280;69667;52.136;5.424;2024-03-22T06:13:28;101793.06;;;9.83;100.00
76694;BME280;69667;52.136;5.424;2024-03-22T06:15:55;101796.47;;;9.87;100.00
76694;BME280;69667;52.136;5.424;2024-03-22T06:18:22;101793.50;;;9.91;100.00
76694;BME280;69667;52.136;5.424;2024-03-22T06:20:49;101792.56;;;9.92;100.00
76694;BME280;69667;52.136;5.424;2024-03-22T06:23:16;101796.03;;;9.94;100.00
76694;BME280;69667;52.136;5.424;2024-03-22T06:25:51;101793.88;;;10.01;100.00
76694;BME280;69667;52.136;5.424;2024-03-22T06:28:18;101789.16;;;10.04;100.00
76694;BME280;69667;52.136;5.424;2024-03-22T06:30:45;101779.22;;;10.05;100.00
76694;BME280;69667;52.136;5.424;2024-03-22T06:33:12;101778.28;;;10.06;100.00
76694;BME280;69667;52.136;5.424;2024-03-22T06:35:39;101787.84;;;10.11;100.00
76694;BME280;69667;52.136;5.424;2024-03-22T06:38:05;101786.63;;;10.17;100.00
76694;BME280;69667;52.136;5.424;2024-03-22T06:40:32;101784.53;;;10.22;100.00
76694;BME280;69667;52.136;5.424;2024-03-22T06:42:59;101783.41;;;10.26;100.00
76694;BME280;69667;52.136;5.424;2024-03-22T06:45:26;101781.22;;;10.33;100.00
76694;BME280;69667;52.136;5.424;2024-03-22T06:47:53;101779.13;;;10.38;100.00
76694;BME280;69667;52.136;5.424;2024-03-22T06:50:21;101786.94;;;10.42;100.00
76694;BME280;69667;52.136;5.424;2024-03-22T06:52:54;101786.16;;;10.40;100.00
76694;BME280;69667;52.136;5.424;2024-03-22T06:55:21;101780.41;;;10.46;100.00
76694;BME280;69667;52.136;5.424;2024-03-22T06:57:49;101791.41;;;10.57;100.00
76694;BME280;69667;52.136;5.424;2024-03-22T07:00:16;101791.03;;;10.63;100.00
76694;BME280;69667;52.136;5.424;2024-03-22T07:02:44;101782.88;;;10.65;100.00
76694;BME280;69667;52.136;5.424;2024-03-22T07:05:11;101781.59;;;10.70;100.00
76694;BME280;69667;52.136;5.424;2024-03-22T07:07:39;101790.28;;;10.75;100.00
76694;BME280;69667;52.136;5.424;2024-03-22T07:10:06;101791.66;;;10.82;100.00
76694;BME280;69667;52.136;5.424;2024-03-22T07:12:33;101789.84;;;10.83;100.00
76694;BME280;69667;52.136;5.424;2024-03-22T07:15:01;101789.94;;;10.81;100.00
76694;BME280;69667;52.136;5.424;2024-03-22T07:17:29;101780.28;;;10.77;100.00
76694;BME280;69667;52.136;5.424;2024-03-22T07:19:55;101777.00;;;10.72;100.00
76694;BME280;69667;52.136;5.424;2024-03-22T07:22:23;101784.78;;;10.77;100.00
76694;BME280;69667;52.136;5.424;2024-03-22T07:24:50;101786.56;;;10.78;100.00
76694;BME280;69667;52.136;5.424;2024-03-22T07:27:17;101785.69;;;10.77;100.00
76694;BME280;69667;52.136;5.424;2024-03-22T07:29:44;101789.94;;;10.81;100.00
76694;BME280;69667;52.136;5.424;2024-03-22T07:32:11;101782.88;;;10.79;100.00
76694;BME280;69667;52.136;5.424;2024-03-22T07:34:38;101785.69;;;10.77;100.00
76694;BME280;69667;52.136;5.424;2024-03-22T07:37:05;101789.50;;;10.73;100.00
76694;BME280;69667;52.136;5.424;2024-03-22T07:39:46;101788.75;;;10.71;100.00
76694;BME280;69667;52.136;5.424;2024-03-22T07:42:13;101790.97;;;10.65;100.00
76694;BME280;69667;52.136;5.424;2024-03-22T07:44:40;101783.91;;;10.62;100.00
76694;BME280;69667;52.136;5.424;2024-03-22T07:47:07;101783.03;;;10.62;100.00
76694;BME280;69667;52.136;5.424;2024-03-22T07:49:34;101792.09;;;10.61;100.00
76694;BME280;69667;52.136;5.424;2024-03-22T07:52:01;101792.19;;;10.59;100.00
76694;BME280;69667;52.136;5.424;2024-03-22T07:54:27;101785.03;;;10.58;100.00
76694;BME280;69667;52.136;5.424;2024-03-22T07:56:54;101783.22;;;10.59;100.00
76694;BME280;69667;52.136;5.424;2024-03-22T07:59:21;101780.53;;;10.59;100.00
76694;BME280;69667;52.136;5.424;2024-03-22T08:01:48;101788.81;;;10.56;100.00
76694;BME280;69667;52.136;5.424;2024-03-22T08:04:15;101784.44;;;10.53;100.00
76694;BME280;69667;52.136;5.424;2024-03-22T08:06:42;101786.50;;;10.50;100.00
76694;BME280;69667;52.136;5.424;2024-03-22T08:09:09;101784.38;;;10.55;100.00
76694;BME280;69667;52.136;5.424;2024-03-22T08:11:36;101789.78;;;10.55;100.00
76694;BME280;69667;52.136;5.424;2024-03-22T08:14:02;101784.28;;;10.56;100.00
76694;BME280;69667;52.136;5.424;2024-03-22T08:16:30;101779.94;;;10.54;100.00
76694;BME280;69667;52.136;5.424;2024-03-22T08:18:57;101783.41;;;10.56;100.00
76694;BME280;69667;52.136;5.424;2024-03-22T08:21:24;101786.00;;;10.57;100.00
76694;BME280;69667;52.136;5.424;2024-03-22T08:23:52;101781.59;;;10.56;100.00
76694;BME280;69667;52.136;5.424;2024-03-22T08:26:19;101787.00;;;10.56;100.00
76694;BME280;69667;52.136;5.424;2024-03-22T08:28:47;101779.03;;;10.53;100.00
76694;BME280;69667;52.136;5.424;2024-03-22T08:31:14;101788.41;;;10.48;100.00
76694;BME280;69667;52.136;5.424;2024-03-22T08:33:41;101788.06;;;10.38;100.00
76694;BME280;69667;52.136;5.424;2024-03-22T08:36:08;101781.53;;;10.42;100.00
76694;BME280;69667;52.136;5.424;2024-03-22T08:38:35;101779.03;;;10.39;100.00
76694;BME280;69667;52.136;5.424;2024-03-22T08:41:02;101780.56;;;10.43;100.00
76694;BME280;69667;52.136;5.424;2024-03-22T08:43:30;101775.25;;;10.42;100.00
76694;BME280;69667;52.136;5.424;2024-03-22T08:45:57;101777.84;;;10.43;100.00
76694;BME280;69667;52.136;5.424;2024-03-22T08:48:24;101768.41;;;10.36;100.00
76694;BME280;69667;52.136;5.424;2024-03-22T08:50:51;101770.44;;;10.33;100.00
76694;BME280;69667;52.136;5.424;2024-03-22T08:53:18;101774.06;;;10.32;100.00
76694;BME280;69667;52.136;5.424;2024-03-22T08:55:47;101766.25;;;10.27;100.00
76694;BME280;69667;52.136;5.424;2024-03-22T08:58:14;101769.22;;;10.23;100.00
76694;BME280;69667;52.136;5.424;2024-03-22T09:00:44;101775.22;;;10.28;100.00
76694;BME280;69667;52.136;5.424;2024-03-22T09:03:11;101780.34;;;10.32;100.00
76694;BME280;69667;52.136;5.424;2024-03-22T09:05:38;101772.06;;;10.35;100.00
76694;BME280;69667;52.136;5.424;2024-03-22T09:08:12;101772.06;;;10.35;100.00
76694;BME280;69667;52.136;5.424;2024-03-22T09:10:39;101777.75;;;10.31;100.00
76694;BME280;69667;52.136;5.424;2024-03-22T09:13:06;101768.94;;;10.27;100.00
76694;BME280;69667;52.136;5.424;2024-03-22T09:15:33;101770.63;;;10.30;100.00
76694;BME280;69667;52.136;5.424;2024-03-22T09:18:00;101775.81;;;10.33;100.00
76694;BME280;69667;52.136;5.424;2024-03-22T09:20:27;101765.81;;;10.35;100.00
76694;BME280;69667;52.136;5.424;2024-03-22T09:22:54;101768.22;;;10.39;100.00
76694;BME280;69667;52.136;5.424;2024-03-22T09:25:21;101764.47;;;10.42;100.00
76694;BME280;69667;52.136;5.424;2024-03-22T09:27:48;101767.25;;;10.40;100.00
76694;BME280;69667;52.136;5.424;2024-03-22T09:30:15;101768.03;;;10.42;100.00
76694;BME280;69667;52.136;5.424;2024-03-22T09:32:42;101759.31;;;10.53;100.00
76694;BME280;69667;52.136;5.424;2024-03-22T09:35:09;101761.72;;;10.57;100.00
76694;BME280;69667;52.136;5.424;2024-03-22T09:37:36;101764.22;;;10.60;100.00
76694;BME280;69667;52.136;5.424;2024-03-22T09:40:04;101766.44;;;10.54;100.00
76694;BME280;69667;52.136;5.424;2024-03-22T09:42:37;101764.72;;;10.53;100.00
76694;BME280;69667;52.136;5.424;2024-03-22T09:45:09;101761.03;;;10.54;100.00
76694;BME280;69667;52.136;5.424;2024-03-22T09:47:37;101758.22;;;10.55;100.00
76694;BME280;69667;52.136;5.424;2024-03-22T09:50:06;101763.38;;;10.60;100.00
76694;BME280;69667;52.136;5.424;2024-03-22T09:52:33;101754.22;;;10.62;100.00
76694;BME280;69667;52.136;5.424;2024-03-22T09:55:02;101761.06;;;10.68;100.00
76694;BME280;69667;52.136;5.424;2024-03-22T09:57:30;101753.91;;;10.67;100.00
76694;BME280;69667;52.136;5.424;2024-03-22T09:59:57;101754.00;;;10.65;100.00
76694;BME280;69667;52.136;5.424;2024-03-22T10:02:25;101759.22;;;10.68;100.00
76694;BME280;69667;52.136;5.424;2024-03-22T10:04:53;101756.63;;;10.67;100.00
76694;BME280;69667;52.136;5.424;2024-03-22T10:07:19;101742.28;;;10.66;100.00
76694;BME280;69667;52.136;5.424;2024-03-22T10:09:46;101756.91;;;10.62;100.00
76694;BME280;69667;52.136;5.424;2024-03-22T10:12:13;101757.00;;;10.61;100.00
76694;BME280;69667;52.136;5.424;2024-03-22T10:14:43;101752.47;;;10.61;100.00
76694;BME280;69667;52.136;5.424;2024-03-22T10:17:10;101753.53;;;10.59;100.00
76694;BME280;69667;52.136;5.424;2024-03-22T10:19:37;101751.91;;;10.56;100.00
76694;BME280;69667;52.136;5.424;2024-03-22T10:22:04;101743.59;;;10.59;100.00
76694;BME280;69667;52.136;5.424;2024-03-22T10:24:32;101738.50;;;10.69;100.00
76694;BME280;69667;52.136;5.424;2024-03-22T10:27:00;101739.38;;;10.83;100.00
76694;BME280;69667;52.136;5.424;2024-03-22T10:29:27;101742.41;;;10.93;100.00
76694;BME280;69667;52.136;5.424;2024-03-22T10:31:55;101736.59;;;10.99;100.00
76694;BME280;69667;52.136;5.424;2024-03-22T10:34:25;101738.06;;;11.04;100.00
76694;BME280;69667;52.136;5.424;2024-03-22T10:36:52;101730.91;;;11.03;100.00
76694;BME280;69667;52.136;5.424;2024-03-22T10:39:19;101738.25;;;11.01;100.00
76694;BME280;69667;52.136;5.424;2024-03-22T10:41:46;101741.41;;;10.94;100.00
76694;BME280;69667;52.136;5.424;2024-03-22T10:44:17;101744.50;;;10.88;100.00
76694;BME280;69667;52.136;5.424;2024-03-22T10:46:45;101737.66;;;10.82;100.00
76694;BME280;69667;52.136;5.424;2024-03-22T10:49:16;101741.13;;;10.84;100.00
76694;BME280;69667;52.136;5.424;2024-03-22T10:51:50;101743.72;;;10.86;100.00
76694;BME280;69667;52.136;5.424;2024-03-22T10:54:19;101744.50;;;10.88;100.00
76694;BME280;69667;52.136;5.424;2024-03-22T10:56:47;101739.41;;;10.97;100.00
76694;BME280;69667;52.136;5.424;2024-03-22T10:59:27;101744.03;;;10.95;100.00
76694;BME280;69667;52.136;5.424;2024-03-22T11:02:03;101736.03;;;10.94;100.00
76694;BME280;69667;52.136;5.424;2024-03-22T11:04:30;101738.72;;;10.94;100.00
76694;BME280;69667;52.136;5.424;2024-03-22T11:06:57;101740.53;;;10.93;100.00
76694;BME280;69667;52.136;5.424;2024-03-22T11:09:27;101731.78;;;11.04;100.00
76694;BME280;69667;52.136;5.424;2024-03-22T11:11:55;101724.72;;;11.15;100.00
76694;BME280;69667;52.136;5.424;2024-03-22T11:14:27;101728.88;;;11.21;100.00
76694;BME280;69667;52.136;5.424;2024-03-22T11:16:55;101721.56;;;11.23;100.00
76694;BME280;69667;52.136;5.424;2024-03-22T11:19:22;101724.13;;;11.38;100.00
76694;BME280;69667;52.136;5.424;2024-03-22T11:21:49;101731.66;;;11.47;100.00
76694;BME280;69667;52.136;5.424;2024-03-22T11:24:15;101716.19;;;11.49;100.00
76694;BME280;69667;52.136;5.424;2024-03-22T11:26:42;101715.13;;;11.52;100.00
76694;BME280;69667;52.136;5.424;2024-03-22T11:29:11;101711.53;;;11.66;100.00
76694;BME280;69667;52.136;5.424;2024-03-22T11:31:38;101698.84;;;11.80;100.00
76694;BME280;69667;52.136;5.424;2024-03-22T11:34:05;101707.56;;;11.98;100.00
76694;BME280;69667;52.136;5.424;2024-03-22T11:36:32;101702.19;;;12.10;100.00
76694;BME280;69667;52.136;5.424;2024-03-22T11:38:59;101701.19;;;12.38;100.00
76694;BME280;69667;52.136;5.424;2024-03-22T11:41:29;101691.22;;;12.51;100.00
76694;BME280;69667;52.136;5.424;2024-03-22T11:43:58;101693.81;;;12.40;100.00
76694;BME280;69667;52.136;5.424;2024-03-22T11:46:27;101685.88;;;12.37;100.00
76694;BME280;69667;52.136;5.424;2024-03-22T11:48:55;101688.25;;;12.29;100.00
76694;BME280;69667;52.136;5.424;2024-03-22T11:51:22;101688.69;;;12.23;100.00
76694;BME280;69667;52.136;5.424;2024-03-22T11:53:53;101685.72;;;12.01;100.00
76694;BME280;69667;52.136;5.424;2024-03-22T11:56:24;101692.84;;;12.02;100.00
76694;BME280;69667;52.136;5.424;2024-03-22T11:58:58;101686.03;;;11.96;100.00
76694;BME280;69667;52.136;5.424;2024-03-22T12:01:26;101686.63;;;11.87;100.00
76694;BME280;69667;52.136;5.424;2024-03-22T12:04:03;101681.75;;;11.80;100.00
76694;BME280;69667;52.136;5.424;2024-03-22T12:06:30;101677.94;;;11.70;100.00
76694;BME280;69667;52.136;5.424;2024-03-22T12:08:57;101687.38;;;11.63;100.00
76694;BME280;69667;52.136;5.424;2024-03-22T12:11:24;101674.56;;;11.52;100.00
76694;BME280;69667;52.136;5.424;2024-03-22T12:13:52;101674.00;;;11.47;100.00
76694;BME280;69667;52.136;5.424;2024-03-22T12:16:18;101683.41;;;11.27;100.00
76694;BME280;69667;52.136;5.424;2024-03-22T12:18:45;101674.72;;;11.22;100.00
76694;BME280;69667;52.136;5.424;2024-03-22T12:21:12;101684.75;;;11.20;100.00
76694;BME280;69667;52.136;5.424;2024-03-22T12:23:39;101676.97;;;11.16;100.00
76694;BME280;69667;52.136;5.424;2024-03-22T12:26:06;101676.09;;;11.15;100.00
76694;BME280;69667;52.136;5.424;2024-03-22T12:28:33;101682.16;;;11.19;100.00
76694;BME280;69667;52.136;5.424;2024-03-22T12:31:00;101679.25;;;11.22;100.00
76694;BME280;69667;52.136;5.424;2024-03-22T12:33:26;101678.13;;;11.12;100.00
76694;BME280;69667;52.136;5.424;2024-03-22T12:35:53;101675.22;;;11.15;100.00
76694;BME280;69667;52.136;5.424;2024-03-22T12:38:20;101675.78;;;11.20;100.00
76694;BME280;69667;52.136;5.424;2024-03-22T12:40:47;101671.34;;;11.33;100.00
76694;BME280;69667;52.136;5.424;2024-03-22T12:43:15;101658.09;;;11.42;100.00